createdAt,value
2016-08-04T00:00:53.345Z,21.69
2016-08-04T00:01:53.368Z,21.67
2016-08-04T00:02:53.389Z,21.67
2016-08-04T00:03:53.414Z,21.72
2016-08-04T00:04:53.440Z,21.61
2016-08-04T00:05:53.470Z,21.65
2016-08-04T00:06:53.492Z,21.61
2016-08-04T00:07:53.517Z,21.71
2016-08-04T00:08:53.539Z,21.58
2016-08-04T00:09:53.565Z,21.68
2016-08-04T00:10:53.596Z,21.64
2016-08-04T00:11:53.617Z,21.72
2016-08-04T00:12:53.642Z,21.69
2016-08-04T00:13:53.664Z,21.69
2016-08-04T00:14:53.690Z,21.68
2016-08-04T00:15:53.715Z,21.72
2016-08-04T00:16:53.740Z,21.65
2016-08-04T00:17:53.766Z,21.72
2016-08-04T00:18:53.790Z,21.65
2016-08-04T00:20:53.840Z,21.74
2016-08-04T00:21:53.862Z,21.71
2016-08-04T00:22:53.890Z,21.71
2016-08-04T00:23:53.914Z,21.69
2016-08-04T00:24:53.938Z,21.72
2016-08-04T00:25:53.963Z,21.68
2016-08-04T00:26:53.988Z,21.65
2016-08-04T00:27:54.020Z,21.71
2016-08-04T00:28:54.043Z,21.72
2016-08-04T00:29:54.062Z,21.53
2016-08-04T00:30:54.087Z,21.68
2016-08-04T00:31:54.109Z,21.59
2016-08-04T00:32:54.137Z,21.59
2016-08-04T00:33:54.162Z,21.71
2016-08-04T00:34:54.187Z,21.58
2016-08-04T00:35:54.210Z,21.64
2016-08-04T00:36:54.234Z,21.64
2016-08-04T00:37:54.259Z,21.61
2016-08-04T00:38:54.285Z,21.62
2016-08-04T00:39:54.310Z,21.61
2016-08-04T00:40:54.335Z,21.69
2016-08-04T00:41:54.358Z,21.69
2016-08-04T00:42:54.383Z,21.58
2016-08-04T00:43:54.408Z,21.58
2016-08-04T00:44:54.439Z,21.54
2016-08-04T00:45:54.460Z,21.62
2016-08-04T00:46:54.482Z,21.58
2016-08-04T00:47:54.510Z,21.59
2016-08-04T00:48:54.533Z,21.59
2016-08-04T00:49:54.557Z,21.62
2016-08-04T00:50:54.582Z,21.56
2016-08-04T00:51:54.620Z,21.58
2016-08-04T00:52:54.636Z,21.58
2016-08-04T00:53:54.655Z,21.53
2016-08-04T00:54:54.680Z,21.53
2016-08-04T00:55:54.713Z,21.59
2016-08-04T00:56:54.732Z,21.68
2016-08-04T00:57:54.756Z,21.65
2016-08-04T00:58:54.779Z,21.62
2016-08-04T00:59:54.811Z,21.61
2016-08-04T01:00:54.832Z,21.64
2016-08-04T01:01:54.853Z,21.72
2016-08-04T01:02:54.875Z,21.61
2016-08-04T01:03:54.908Z,21.65
2016-08-04T01:04:54.927Z,21.59
2016-08-04T01:05:54.952Z,21.59
2016-08-04T01:06:54.977Z,21.53
2016-08-04T01:07:55.014Z,21.59
2016-08-04T01:08:55.043Z,21.61
2016-08-04T01:09:55.049Z,21.56
2016-08-04T01:10:55.076Z,21.58
2016-08-04T01:11:55.103Z,21.67
2016-08-04T01:12:55.126Z,21.61
2016-08-04T01:13:55.148Z,21.46
2016-08-04T01:14:55.186Z,21.58
2016-08-04T01:15:55.208Z,21.59
2016-08-04T01:16:55.225Z,21.5
2016-08-04T01:17:55.249Z,21.47
2016-08-04T01:18:55.273Z,21.54
2016-08-04T01:20:55.326Z,21.59
2016-08-04T01:21:55.350Z,21.62
2016-08-04T01:22:55.374Z,21.52
2016-08-04T01:23:55.398Z,21.54
2016-08-04T01:24:55.421Z,21.52
2016-08-04T01:25:55.450Z,21.56
2016-08-04T01:26:55.475Z,21.58
2016-08-04T01:27:55.496Z,21.49
2016-08-04T01:28:55.521Z,21.5
2016-08-04T01:29:55.548Z,21.47
2016-08-04T01:30:55.571Z,21.5
2016-08-04T01:31:55.598Z,21.44
2016-08-04T01:32:55.620Z,21.5
2016-08-04T01:33:55.650Z,21.46
2016-08-04T01:35:55.696Z,21.5
2016-08-04T01:36:55.721Z,21.47
2016-08-04T01:37:55.746Z,21.49
2016-08-04T01:38:55.769Z,21.5
2016-08-04T01:39:55.794Z,21.43
2016-08-04T01:40:55.818Z,21.49
2016-08-04T01:41:55.845Z,21.43
2016-08-04T01:42:55.868Z,21.47
2016-08-04T01:43:55.891Z,21.53
2016-08-04T01:44:55.916Z,21.46
2016-08-04T01:45:55.943Z,21.5
2016-08-04T01:46:55.967Z,21.4
2016-08-04T01:47:55.992Z,21.46
2016-08-04T01:48:56.013Z,21.49
2016-08-04T01:50:56.767Z,21.43
2016-08-04T01:51:56.090Z,21.54
2016-08-04T01:52:56.117Z,21.58
2016-08-04T01:53:56.146Z,21.52
2016-08-04T01:54:56.163Z,21.49
2016-08-04T01:55:56.198Z,21.46
2016-08-04T01:56:56.216Z,21.38
2016-08-04T01:57:56.240Z,21.47
2016-08-04T01:58:56.273Z,21.5
2016-08-04T01:59:56.286Z,21.53
2016-08-04T02:00:57.018Z,21.43
2016-08-04T02:01:56.336Z,21.4
2016-08-04T02:02:56.363Z,21.53
2016-08-04T02:03:56.388Z,21.44
2016-08-04T02:04:56.410Z,21.49
2016-08-04T02:05:56.435Z,21.5
2016-08-04T02:06:56.466Z,21.4
2016-08-04T02:07:56.486Z,21.46
2016-08-04T02:08:56.513Z,21.5
2016-08-04T02:09:56.537Z,21.46
2016-08-04T02:10:56.559Z,21.44
2016-08-04T02:11:56.583Z,21.49
2016-08-04T02:12:56.609Z,21.5
2016-08-04T02:13:56.639Z,21.42
2016-08-04T02:14:56.659Z,21.47
2016-08-04T02:15:56.683Z,21.46
2016-08-04T02:16:56.714Z,21.44
2016-08-04T02:17:56.730Z,21.5
2016-08-04T02:18:56.759Z,21.29
2016-08-04T02:19:56.781Z,21.4
2016-08-04T02:20:56.807Z,21.43
2016-08-04T02:21:56.830Z,21.42
2016-08-04T02:22:56.866Z,21.46
2016-08-04T02:23:56.880Z,21.4
2016-08-04T02:24:56.906Z,21.38
2016-08-04T02:25:56.931Z,21.44
2016-08-04T02:26:56.952Z,21.37
2016-08-04T02:27:56.980Z,21.4
2016-08-04T02:28:57.003Z,21.4
2016-08-04T02:29:57.028Z,21.42
2016-08-04T02:30:57.065Z,21.38
2016-08-04T02:31:57.079Z,21.4
2016-08-04T02:32:57.099Z,21.43
2016-08-04T02:33:57.126Z,21.46
2016-08-04T02:34:57.152Z,21.46
2016-08-04T02:35:57.177Z,21.37
2016-08-04T02:36:57.201Z,21.37
2016-08-04T02:37:57.222Z,21.4
2016-08-04T02:38:57.250Z,21.35
2016-08-04T02:39:57.273Z,21.35
2016-08-04T02:40:57.299Z,21.43
2016-08-04T02:41:57.324Z,21.42
2016-08-04T02:42:57.347Z,21.4
2016-08-04T02:43:57.376Z,21.46
2016-08-04T02:44:57.398Z,21.42
2016-08-04T02:45:57.422Z,21.46
2016-08-04T02:46:57.447Z,21.37
2016-08-04T02:47:57.467Z,21.42
2016-08-04T02:48:57.498Z,21.44
2016-08-04T02:49:57.521Z,21.44
2016-08-04T02:50:57.548Z,21.4
2016-08-04T02:51:57.567Z,21.4
2016-08-04T02:52:57.594Z,21.49
2016-08-04T02:53:57.619Z,21.29
2016-08-04T02:54:57.647Z,21.34
2016-08-04T02:55:57.665Z,21.34
2016-08-04T02:56:57.697Z,21.32
2016-08-04T02:57:57.718Z,21.42
2016-08-04T02:58:57.751Z,21.4
2016-08-04T02:59:57.764Z,21.43
2016-08-04T03:00:57.792Z,21.34
2016-08-04T03:01:57.819Z,21.34
2016-08-04T03:02:57.841Z,21.34
2016-08-04T03:03:57.877Z,21.42
2016-08-04T03:04:57.888Z,21.42
2016-08-04T03:05:57.914Z,21.34
2016-08-04T03:06:57.941Z,21.31
2016-08-04T03:07:57.965Z,21.34
2016-08-04T03:08:57.986Z,21.37
2016-08-04T03:09:58.014Z,21.4
2016-08-04T03:10:58.039Z,21.35
2016-08-04T03:11:58.070Z,21.32
2016-08-04T03:12:58.086Z,21.35
2016-08-04T03:13:58.112Z,21.43
2016-08-04T03:14:58.138Z,21.31
2016-08-04T03:15:58.167Z,21.37
2016-08-04T03:16:58.881Z,21.35
2016-08-04T03:17:58.212Z,21.35
2016-08-04T03:18:58.238Z,21.35
2016-08-04T03:19:58.262Z,21.38
2016-08-04T03:20:58.288Z,21.37
2016-08-04T03:21:58.313Z,21.38
2016-08-04T03:22:58.336Z,21.35
2016-08-04T03:23:58.357Z,21.35
2016-08-04T03:24:58.386Z,21.34
2016-08-04T03:25:58.414Z,21.32
2016-08-04T03:26:58.459Z,21.31
2016-08-04T03:27:58.455Z,21.34
2016-08-04T03:28:58.482Z,21.37
2016-08-04T03:29:58.507Z,21.34
2016-08-04T03:30:58.537Z,21.38
2016-08-04T03:31:58.553Z,21.35
2016-08-04T03:32:58.578Z,21.37
2016-08-04T03:33:58.605Z,21.42
2016-08-04T03:34:58.633Z,21.35
2016-08-04T03:35:58.654Z,21.32
2016-08-04T03:36:58.677Z,21.22
2016-08-04T03:37:58.702Z,21.32
2016-08-04T03:38:58.724Z,21.34
2016-08-04T03:39:58.751Z,21.29
2016-08-04T03:40:58.782Z,21.32
2016-08-04T03:41:58.810Z,21.31
2016-08-04T03:42:58.823Z,21.22
2016-08-04T03:43:58.848Z,21.24
2016-08-04T03:44:58.886Z,21.22
2016-08-04T03:45:58.904Z,21.35
2016-08-04T03:46:58.923Z,21.34
2016-08-04T03:47:58.959Z,21.22
2016-08-04T03:48:58.971Z,21.21
2016-08-04T03:49:58.995Z,21.32
2016-08-04T03:50:59.020Z,21.32
2016-08-04T03:51:59.046Z,21.32
2016-08-04T03:52:59.071Z,21.34
2016-08-04T03:53:59.101Z,21.32
2016-08-04T03:54:59.118Z,21.35
2016-08-04T03:55:59.149Z,21.35
2016-08-04T03:56:59.169Z,21.38
2016-08-04T03:57:59.194Z,21.28
2016-08-04T03:58:59.219Z,21.37
2016-08-04T03:59:59.242Z,21.32
2016-08-04T04:00:59.269Z,21.37
2016-08-04T04:01:59.292Z,21.35
2016-08-04T04:02:59.327Z,21.4
2016-08-04T04:03:59.342Z,21.37
2016-08-04T04:04:59.367Z,21.31
2016-08-04T04:05:59.391Z,21.31
2016-08-04T04:06:59.412Z,21.27
2016-08-04T04:07:59.444Z,21.31
2016-08-04T04:08:59.461Z,21.35
2016-08-04T04:09:59.487Z,21.31
2016-08-04T04:10:59.527Z,21.35
2016-08-04T04:11:59.536Z,21.27
2016-08-04T04:12:59.560Z,21.25
2016-08-04T04:14:00.305Z,21.28
2016-08-04T04:14:59.610Z,21.24
2016-08-04T04:15:59.637Z,21.32
2016-08-04T04:16:59.659Z,21.27
2016-08-04T04:17:59.689Z,21.31
2016-08-04T04:18:59.706Z,21.31
2016-08-04T04:19:59.734Z,21.24
2016-08-04T04:20:59.757Z,21.38
2016-08-04T04:21:59.800Z,21.32
2016-08-04T04:22:59.803Z,21.35
2016-08-04T04:23:59.829Z,21.34
2016-08-04T04:24:59.857Z,21.32
2016-08-04T04:25:59.896Z,21.38
2016-08-04T04:26:59.904Z,21.29
2016-08-04T04:27:59.925Z,21.35
2016-08-04T04:28:59.952Z,21.34
2016-08-04T04:29:59.978Z,21.38
2016-08-04T04:31:00.004Z,21.34
2016-08-04T04:32:00.039Z,21.35
2016-08-04T04:33:00.052Z,21.32
2016-08-04T04:34:00.074Z,21.35
2016-08-04T04:35:00.106Z,21.37
2016-08-04T04:36:00.126Z,21.4
2016-08-04T04:37:00.152Z,21.31
2016-08-04T04:38:00.175Z,21.28
2016-08-04T04:39:00.200Z,21.34
2016-08-04T04:40:00.235Z,21.31
2016-08-04T04:41:00.258Z,21.32
2016-08-04T04:42:00.275Z,21.35
2016-08-04T04:43:00.299Z,21.32
2016-08-04T04:44:00.319Z,21.34
2016-08-04T04:45:00.350Z,21.35
2016-08-04T04:46:00.369Z,21.37
2016-08-04T04:47:00.395Z,21.43
2016-08-04T04:48:00.438Z,21.46
2016-08-04T04:49:01.146Z,21.47
2016-08-04T04:50:00.469Z,21.49
2016-08-04T04:51:00.494Z,21.53
2016-08-04T04:52:00.516Z,21.53
2016-08-04T04:53:00.544Z,21.49
2016-08-04T04:54:00.569Z,21.56
2016-08-04T04:55:00.596Z,21.49
2016-08-04T04:56:00.615Z,21.4
2016-08-04T04:57:00.640Z,21.46
2016-08-04T04:58:00.667Z,21.59
2016-08-04T04:59:00.691Z,21.49
2016-08-04T05:00:00.711Z,21.54
2016-08-04T05:01:00.738Z,21.53
2016-08-04T05:02:00.768Z,21.5
2016-08-04T05:03:00.789Z,21.46
2016-08-04T05:04:00.813Z,21.47
2016-08-04T05:05:00.834Z,21.46
2016-08-04T05:06:00.861Z,21.47
2016-08-04T05:07:00.886Z,21.53
2016-08-04T05:08:00.909Z,21.59
2016-08-04T05:09:00.935Z,21.56
2016-08-04T05:10:00.964Z,21.54
2016-08-04T05:11:00.982Z,21.61
2016-08-04T05:12:01.009Z,21.61
2016-08-04T05:13:01.034Z,21.59
2016-08-04T05:14:01.077Z,21.59
2016-08-04T05:15:01.084Z,21.54
2016-08-04T05:16:01.107Z,21.59
2016-08-04T05:17:01.134Z,21.58
2016-08-04T05:18:01.155Z,21.61
2016-08-04T05:19:01.188Z,21.58
2016-08-04T05:20:01.209Z,21.58
2016-08-04T05:21:01.238Z,21.59
2016-08-04T05:22:01.254Z,21.59
2016-08-04T05:23:01.285Z,21.53
2016-08-04T05:24:01.303Z,21.54
2016-08-04T05:25:01.327Z,21.61
2016-08-04T05:26:01.355Z,21.52
2016-08-04T05:27:01.375Z,21.58
2016-08-04T05:28:01.404Z,21.59
2016-08-04T05:29:01.428Z,21.68
2016-08-04T05:30:01.467Z,21.54
2016-08-04T05:31:01.477Z,21.71
2016-08-04T05:32:01.499Z,21.67
2016-08-04T05:33:01.526Z,21.71
2016-08-04T05:34:01.554Z,21.72
2016-08-04T05:35:01.575Z,21.8
2016-08-04T05:37:01.630Z,21.8
2016-08-04T05:38:01.657Z,21.82
2016-08-04T05:39:01.675Z,21.82
2016-08-04T05:40:01.698Z,21.75
2016-08-04T05:41:01.724Z,21.83
2016-08-04T05:42:01.747Z,21.86
2016-08-04T05:43:01.773Z,21.83
2016-08-04T05:44:01.797Z,21.96
2016-08-04T05:45:01.822Z,21.96
2016-08-04T05:46:01.863Z,21.92
2016-08-04T05:47:01.874Z,21.96
2016-08-04T05:48:01.903Z,21.91
2016-08-04T05:49:01.920Z,22
2016-08-04T05:50:01.958Z,21.91
2016-08-04T05:52:02.001Z,22.09
2016-08-04T05:53:02.022Z,22.1
2016-08-04T05:54:02.045Z,22.31
2016-08-04T05:55:02.071Z,22.31
2016-08-04T05:56:02.098Z,22.4
2016-08-04T05:57:02.116Z,22.54
2016-08-04T05:58:02.147Z,22.65
2016-08-04T05:59:02.168Z,22.76
2016-08-04T06:00:02.192Z,22.82
2016-08-04T06:01:02.218Z,22.97
2016-08-04T06:02:02.249Z,23.17
2016-08-04T06:03:02.268Z,23.43
2016-08-04T06:04:02.293Z,23.46
2016-08-04T06:05:02.317Z,23.47
2016-08-04T06:06:02.347Z,23.2
2016-08-04T06:07:02.367Z,22.88
2016-08-04T06:08:02.393Z,22.77
2016-08-04T06:09:02.425Z,22.68
2016-08-04T06:10:02.444Z,22.61
2016-08-04T06:11:02.470Z,22.7
2016-08-04T06:12:02.494Z,22.73
2016-08-04T06:13:02.522Z,22.82
2016-08-04T06:14:02.546Z,22.85
2016-08-04T06:15:02.570Z,22.85
2016-08-04T06:16:02.596Z,22.83
2016-08-04T06:17:02.624Z,22.94
2016-08-04T06:18:02.649Z,22.97
2016-08-04T06:19:02.678Z,22.92
2016-08-04T06:20:03.395Z,23.05
2016-08-04T06:21:02.724Z,23.09
2016-08-04T06:22:02.756Z,23.17
2016-08-04T06:23:02.778Z,23.23
2016-08-04T06:24:02.802Z,23.23
2016-08-04T06:25:03.526Z,23.36
2016-08-04T06:26:02.857Z,23.5
2016-08-04T06:27:02.877Z,23.72
2016-08-04T06:28:02.907Z,24.08
2016-08-04T06:29:02.929Z,24.2
2016-08-04T06:30:02.961Z,24.1
2016-08-04T06:31:02.976Z,24.2
2016-08-04T06:32:03.008Z,24.24
2016-08-04T06:33:03.033Z,24.4
2016-08-04T06:34:03.060Z,24.61
2016-08-04T06:35:03.082Z,24.77
2016-08-04T06:36:03.120Z,24.9
2016-08-04T06:37:03.146Z,24.85
2016-08-04T06:38:03.156Z,25.09
2016-08-04T06:39:03.186Z,25.14
2016-08-04T06:40:03.211Z,24.95
2016-08-04T06:41:03.238Z,24.85
2016-08-04T06:42:03.262Z,25.05
2016-08-04T06:43:03.993Z,24.96
2016-08-04T06:44:03.315Z,24.84
2016-08-04T06:45:03.343Z,24.71
2016-08-04T06:46:03.368Z,24.68
2016-08-04T06:47:03.395Z,24.76
2016-08-04T06:48:03.421Z,24.73
2016-08-04T06:49:03.446Z,24.73
2016-08-04T06:50:03.480Z,24.76
2016-08-04T06:51:03.502Z,24.76
2016-08-04T06:52:03.529Z,24.96
2016-08-04T06:53:03.554Z,25.09
2016-08-04T06:54:03.582Z,25.03
2016-08-04T06:55:03.607Z,24.84
2016-08-04T06:56:03.633Z,24.84
2016-08-04T06:57:03.661Z,25.4
2016-08-04T06:58:03.686Z,25.97
2016-08-04T06:59:03.723Z,26.47
2016-08-04T07:00:03.739Z,26.92
2016-08-04T07:01:03.765Z,27.21
2016-08-04T07:02:03.811Z,27.32
2016-08-04T07:03:03.828Z,27.04
2016-08-04T07:04:03.848Z,27.21
2016-08-04T07:05:03.874Z,27.36
2016-08-04T07:06:03.899Z,27.65
2016-08-04T07:07:03.927Z,27.65
2016-08-04T07:08:03.954Z,27.37
2016-08-04T07:09:03.989Z,27.06
2016-08-04T07:10:04.011Z,26.73
2016-08-04T07:11:04.749Z,26.29
2016-08-04T07:12:04.065Z,26.06
2016-08-04T07:13:04.091Z,26.12
2016-08-04T07:14:04.119Z,26.26
2016-08-04T07:15:05.046Z,26.47
2016-08-04T07:16:04.190Z,26.55
2016-08-04T07:17:04.208Z,26.72
2016-08-04T07:18:04.232Z,26.69
2016-08-04T07:19:04.256Z,26.51
2016-08-04T07:20:04.291Z,26.55
2016-08-04T07:21:04.313Z,26.54
2016-08-04T07:22:04.338Z,26.5
2016-08-04T07:23:04.369Z,26.57
2016-08-04T07:24:04.401Z,26.57
2016-08-04T07:25:04.423Z,27
2016-08-04T07:26:04.471Z,27.29
2016-08-04T07:27:04.488Z,27.37
2016-08-04T07:28:04.504Z,27.22
2016-08-04T07:29:04.534Z,26.99
2016-08-04T07:30:04.567Z,26.8
2016-08-04T07:31:04.587Z,26.76
2016-08-04T07:32:04.614Z,26.63
2016-08-04T07:33:04.643Z,26.6
2016-08-04T07:34:04.670Z,26.54
2016-08-04T07:35:04.697Z,26.55
2016-08-04T07:36:04.732Z,26.43
2016-08-04T07:37:04.751Z,26.37
2016-08-04T07:38:04.782Z,26.39
2016-08-04T07:39:04.808Z,26.32
2016-08-04T07:40:04.837Z,26.29
2016-08-04T07:41:04.864Z,26.32
2016-08-04T07:42:04.892Z,26.3
2016-08-04T07:43:04.918Z,26.26
2016-08-04T07:44:04.945Z,26.26
2016-08-04T07:45:04.978Z,26.2
2016-08-04T07:46:05.706Z,26.09
2016-08-04T07:47:05.072Z,26.07
2016-08-04T07:48:05.055Z,26.1
2016-08-04T07:49:05.085Z,26.05
2016-08-04T07:50:05.113Z,26.05
2016-08-04T07:51:05.140Z,25.94
2016-08-04T07:52:05.169Z,26.07
2016-08-04T07:53:05.194Z,25.92
2016-08-04T07:54:05.221Z,26.06
2016-08-04T07:55:05.250Z,26.07
2016-08-04T07:56:05.277Z,26.12
2016-08-04T07:57:05.305Z,26.05
2016-08-04T07:58:05.334Z,25.98
2016-08-04T07:59:05.360Z,25.95
2016-08-04T08:00:05.393Z,25.91
2016-08-04T08:01:05.417Z,25.88
2016-08-04T08:02:05.447Z,25.83
2016-08-04T08:03:05.477Z,25.94
2016-08-04T08:04:05.505Z,25.8
2016-08-04T08:05:05.528Z,25.83
2016-08-04T08:06:05.569Z,25.88
2016-08-04T08:07:05.586Z,25.83
2016-08-04T08:08:05.609Z,25.9
2016-08-04T08:09:06.340Z,25.83
2016-08-04T08:10:05.669Z,25.92
2016-08-04T08:11:05.698Z,25.83
2016-08-04T08:12:05.731Z,25.85
2016-08-04T08:13:06.450Z,25.77
2016-08-04T08:14:05.779Z,25.73
2016-08-04T08:15:05.808Z,25.76
2016-08-04T08:16:05.834Z,25.77
2016-08-04T08:17:05.884Z,25.75
2016-08-04T08:18:05.889Z,25.77
2016-08-04T08:19:05.915Z,25.75
2016-08-04T08:20:05.947Z,25.72
2016-08-04T08:21:05.974Z,25.75
2016-08-04T08:22:06.165Z,25.82
2016-08-04T08:23:06.032Z,25.77
2016-08-04T08:24:06.058Z,25.82
2016-08-04T08:25:06.085Z,25.77
2016-08-04T08:26:06.114Z,25.82
2016-08-04T08:27:06.141Z,25.83
2016-08-04T08:28:06.168Z,25.83
2016-08-04T08:29:06.198Z,25.88
2016-08-04T08:30:06.230Z,25.83
2016-08-04T08:31:06.253Z,25.8
2016-08-04T08:32:06.281Z,25.82
2016-08-04T08:33:06.305Z,25.88
2016-08-04T08:34:06.335Z,25.85
2016-08-04T08:35:06.364Z,25.8
2016-08-04T08:36:06.406Z,25.94
2016-08-04T08:37:06.419Z,25.94
2016-08-04T08:38:06.445Z,25.9
2016-08-04T08:39:06.542Z,25.92
2016-08-04T08:40:06.507Z,25.87
2016-08-04T08:41:06.588Z,25.9
2016-08-04T08:42:06.557Z,25.94
2016-08-04T08:43:06.585Z,25.99
2016-08-04T08:44:06.621Z,25.94
2016-08-04T08:45:06.641Z,25.88
2016-08-04T08:46:06.669Z,25.99
2016-08-04T08:47:06.699Z,25.88
2016-08-04T08:48:06.731Z,25.82
2016-08-04T08:49:06.754Z,25.92
2016-08-04T08:50:06.781Z,25.91
2016-08-04T08:51:06.809Z,25.88
2016-08-04T08:52:06.840Z,25.91
2016-08-04T08:53:06.861Z,25.8
2016-08-04T08:54:06.896Z,25.88
2016-08-04T08:55:06.922Z,25.82
2016-08-04T08:56:06.947Z,25.88
2016-08-04T08:57:06.976Z,25.83
2016-08-04T08:58:07.007Z,25.87
2016-08-04T08:59:07.038Z,25.79
2016-08-04T09:00:07.062Z,25.79
2016-08-04T09:01:07.086Z,25.75
2016-08-04T09:02:07.117Z,25.72
2016-08-04T09:03:07.142Z,25.79
2016-08-04T09:04:07.172Z,25.85
2016-08-04T09:05:07.199Z,25.85
2016-08-04T09:06:07.228Z,25.87
2016-08-04T09:07:07.256Z,25.88
2016-08-04T09:08:07.287Z,25.76
2016-08-04T09:09:07.308Z,25.88
2016-08-04T09:10:07.346Z,25.77
2016-08-04T09:11:07.366Z,25.82
2016-08-04T09:12:07.395Z,25.85
2016-08-04T09:13:07.434Z,25.83
2016-08-04T09:14:07.449Z,25.87
2016-08-04T09:15:07.476Z,25.79
2016-08-04T09:16:07.506Z,25.77
2016-08-04T09:17:07.532Z,25.83
2016-08-04T09:18:07.564Z,25.8
2016-08-04T09:19:07.587Z,25.88
2016-08-04T09:20:07.620Z,25.82
2016-08-04T09:21:07.643Z,25.82
2016-08-04T09:22:07.673Z,25.88
2016-08-04T09:23:07.704Z,25.8
2016-08-04T09:24:07.726Z,25.73
2016-08-04T09:25:07.751Z,25.77
2016-08-04T09:26:07.781Z,25.8
2016-08-04T09:27:07.811Z,25.73
2016-08-04T09:28:07.837Z,25.76
2016-08-04T09:29:08.569Z,25.76
2016-08-04T09:30:07.891Z,25.79
2016-08-04T09:31:07.925Z,25.77
2016-08-04T09:32:07.948Z,25.82
2016-08-04T09:33:07.974Z,25.75
2016-08-04T09:34:08.001Z,25.76
2016-08-04T09:35:08.028Z,25.73
2016-08-04T09:36:08.059Z,25.75
2016-08-04T09:37:08.085Z,25.77
2016-08-04T09:38:08.110Z,25.77
2016-08-04T09:39:08.145Z,25.77
2016-08-04T09:40:08.169Z,25.88
2016-08-04T09:41:08.204Z,25.88
2016-08-04T09:42:08.221Z,25.91
2016-08-04T09:43:08.252Z,25.92
2016-08-04T09:44:08.277Z,25.88
2016-08-04T09:45:08.309Z,25.9
2016-08-04T09:46:08.333Z,25.87
2016-08-04T09:47:08.362Z,25.92
2016-08-04T09:48:08.601Z,25.95
2016-08-04T09:49:08.421Z,25.92
2016-08-04T09:50:08.445Z,25.88
2016-08-04T09:51:08.474Z,25.88
2016-08-04T09:52:08.502Z,25.91
2016-08-04T09:53:08.544Z,25.83
2016-08-04T09:54:08.561Z,25.91
2016-08-04T09:55:08.584Z,25.9
2016-08-04T09:56:08.613Z,25.85
2016-08-04T09:57:08.651Z,25.85
2016-08-04T09:58:08.669Z,25.88
2016-08-04T09:59:08.702Z,25.91
2016-08-04T10:00:08.725Z,25.8
2016-08-04T10:01:08.758Z,25.82
2016-08-04T10:02:08.780Z,25.9
2016-08-04T10:03:08.807Z,25.95
2016-08-04T10:04:08.839Z,25.95
2016-08-04T10:05:08.866Z,25.95
2016-08-04T10:06:08.893Z,25.95
2016-08-04T10:07:08.925Z,25.97
2016-08-04T10:08:08.959Z,25.91
2016-08-04T10:09:08.990Z,25.9
2016-08-04T10:10:09.035Z,25.88
2016-08-04T10:11:09.046Z,25.92
2016-08-04T10:12:09.062Z,25.88
2016-08-04T10:13:09.090Z,25.79
2016-08-04T10:14:09.121Z,25.79
2016-08-04T10:15:09.148Z,25.8
2016-08-04T10:16:09.175Z,25.72
2016-08-04T10:17:09.205Z,25.77
2016-08-04T10:18:09.227Z,25.65
2016-08-04T10:19:09.257Z,25.65
2016-08-04T10:20:09.284Z,25.58
2016-08-04T10:21:09.319Z,25.58
2016-08-04T10:23:09.369Z,25.58
2016-08-04T10:24:09.394Z,25.54
2016-08-04T10:25:09.424Z,25.52
2016-08-04T10:26:09.453Z,25.5
2016-08-04T10:27:09.481Z,25.5
2016-08-04T10:28:09.509Z,25.42
2016-08-04T10:29:09.534Z,25.46
2016-08-04T10:30:09.571Z,25.46
2016-08-04T10:31:09.592Z,25.52
2016-08-04T10:32:09.626Z,25.47
2016-08-04T10:33:09.648Z,25.54
2016-08-04T10:34:09.675Z,25.52
2016-08-04T10:35:09.709Z,25.47
2016-08-04T10:36:09.730Z,25.51
2016-08-04T10:37:09.760Z,25.47
2016-08-04T10:38:09.788Z,25.43
2016-08-04T10:39:09.815Z,25.38
2016-08-04T10:40:09.841Z,25.39
2016-08-04T10:41:09.876Z,25.42
2016-08-04T10:42:09.898Z,25.24
2016-08-04T10:43:09.928Z,25.4
2016-08-04T10:44:09.954Z,25.38
2016-08-04T10:45:09.979Z,25.4
2016-08-04T10:46:10.010Z,25.42
2016-08-04T10:47:10.038Z,25.4
2016-08-04T10:48:10.069Z,25.35
2016-08-04T10:49:10.091Z,25.38
2016-08-04T10:50:10.827Z,25.35
2016-08-04T10:51:10.150Z,25.35
2016-08-04T10:52:10.177Z,25.35
2016-08-04T10:53:10.206Z,25.39
2016-08-04T10:54:10.232Z,25.27
2016-08-04T10:55:10.259Z,25.32
2016-08-04T10:56:10.293Z,25.33
2016-08-04T10:57:10.319Z,25.3
2016-08-04T10:58:10.348Z,25.39
2016-08-04T10:59:10.374Z,25.35
2016-08-04T11:00:10.398Z,25.35
2016-08-04T11:01:10.427Z,25.25
2016-08-04T11:02:10.459Z,25.33
2016-08-04T11:03:10.484Z,25.25
2016-08-04T11:04:10.513Z,25.3
2016-08-04T11:05:10.541Z,25.25
2016-08-04T11:06:10.576Z,25.2
2016-08-04T11:07:10.595Z,25.2
2016-08-04T11:08:10.623Z,25.2
2016-08-04T11:09:10.649Z,25.23
2016-08-04T11:10:10.677Z,25.2
2016-08-04T11:11:10.706Z,25.28
2016-08-04T11:12:10.735Z,25.25
2016-08-04T11:13:10.782Z,25.2
2016-08-04T11:14:10.786Z,25.36
2016-08-04T11:15:10.817Z,25.36
2016-08-04T11:16:10.845Z,25.33
2016-08-04T11:17:10.891Z,25.38
2016-08-04T11:18:10.901Z,25.39
2016-08-04T11:19:10.933Z,25.38
2016-08-04T11:20:10.958Z,25.4
2016-08-04T11:21:10.982Z,25.36
2016-08-04T11:22:11.012Z,25.43
2016-08-04T11:23:11.040Z,25.4
2016-08-04T11:24:11.068Z,25.5
2016-08-04T11:25:11.092Z,25.5
2016-08-04T11:26:11.135Z,25.55
2016-08-04T11:27:11.150Z,25.55
2016-08-04T11:28:11.180Z,25.61
2016-08-04T11:29:11.207Z,25.67
2016-08-04T11:30:11.232Z,25.79
2016-08-04T11:31:11.267Z,25.75
2016-08-04T11:32:11.293Z,25.83
2016-08-04T11:33:11.320Z,25.8
2016-08-04T11:34:11.346Z,25.91
2016-08-04T11:35:11.371Z,25.92
2016-08-04T11:36:11.406Z,25.95
2016-08-04T11:37:11.438Z,25.94
2016-08-04T11:38:11.463Z,26.07
2016-08-04T11:39:11.488Z,26.06
2016-08-04T11:40:11.520Z,26.09
2016-08-04T11:41:11.539Z,26.07
2016-08-04T11:42:11.572Z,26.06
2016-08-04T11:43:11.595Z,26.12
2016-08-04T11:44:11.628Z,26.2
2016-08-04T11:45:11.652Z,26.12
2016-08-04T11:46:12.378Z,26.26
2016-08-04T11:47:11.709Z,26.23
2016-08-04T11:48:11.741Z,26.28
2016-08-04T11:49:11.763Z,26.25
2016-08-04T11:50:11.802Z,26.26
2016-08-04T11:51:11.826Z,26.18
2016-08-04T11:52:11.848Z,26.17
2016-08-04T11:53:11.876Z,26.23
2016-08-04T11:54:11.910Z,26.28
2016-08-04T11:55:11.934Z,26.23
2016-08-04T11:56:11.961Z,26.12
2016-08-04T11:57:11.989Z,26.1
2016-08-04T11:58:12.015Z,26.09
2016-08-04T11:59:12.046Z,26.13
2016-08-04T12:00:12.072Z,26.26
2016-08-04T12:01:12.102Z,26.23
2016-08-04T12:02:12.127Z,26.13
2016-08-04T12:03:12.163Z,26.26
2016-08-04T12:04:12.188Z,26.09
2016-08-04T12:05:12.212Z,26.12
2016-08-04T12:06:12.241Z,26.09
2016-08-04T12:07:12.273Z,26.09
2016-08-04T12:08:12.297Z,26.07
2016-08-04T12:09:12.323Z,26.05
2016-08-04T12:10:12.354Z,25.94
2016-08-04T12:11:12.381Z,26.12
2016-08-04T12:12:12.407Z,26.06
2016-08-04T12:13:12.436Z,26.13
2016-08-04T12:14:12.464Z,26.06
2016-08-04T12:15:12.490Z,26.1
2016-08-04T12:16:12.517Z,26.25
2016-08-04T12:17:13.246Z,26.26
2016-08-04T12:18:12.576Z,26.39
2016-08-04T12:19:12.610Z,26.37
2016-08-04T12:20:12.629Z,26.44
2016-08-04T12:21:12.658Z,26.44
2016-08-04T12:22:12.686Z,26.36
2016-08-04T12:23:12.713Z,26.43
2016-08-04T12:24:12.748Z,26.29
2016-08-04T12:25:12.771Z,26.33
2016-08-04T12:26:12.797Z,26.18
2016-08-04T12:27:12.830Z,26.33
2016-08-04T12:28:13.594Z,26.26
2016-08-04T12:29:12.882Z,26.32
2016-08-04T12:30:12.907Z,26.29
2016-08-04T12:31:12.939Z,26.35
2016-08-04T12:32:12.966Z,26.25
2016-08-04T12:33:12.994Z,26.28
2016-08-04T12:34:13.026Z,26.25
2016-08-04T12:35:13.054Z,26.2
2016-08-04T12:36:13.075Z,26.1
2016-08-04T12:37:13.103Z,25.91
2016-08-04T12:38:13.136Z,25.67
2016-08-04T12:39:13.161Z,25.43
2016-08-04T12:40:13.191Z,25.38
2016-08-04T12:41:13.214Z,25.2
2016-08-04T12:42:13.248Z,25.15
2016-08-04T12:43:13.271Z,25.2
2016-08-04T12:44:13.299Z,25.36
2016-08-04T12:45:13.325Z,25.45
2016-08-04T12:46:13.353Z,25.72
2016-08-04T12:47:13.381Z,25.82
2016-08-04T12:48:13.408Z,25.92
2016-08-04T12:49:13.434Z,25.95
2016-08-04T12:50:13.471Z,26.02
2016-08-04T12:51:13.491Z,25.92
2016-08-04T12:52:13.528Z,25.99
2016-08-04T12:53:13.548Z,25.94
2016-08-04T12:54:13.573Z,26.05
2016-08-04T12:55:13.601Z,25.94
2016-08-04T12:56:13.635Z,25.9
2016-08-04T12:57:13.661Z,25.9
2016-08-04T12:58:13.687Z,25.91
2016-08-04T12:59:13.710Z,25.97
2016-08-04T13:00:13.753Z,26.07
2016-08-04T13:01:13.767Z,26.05
2016-08-04T13:02:13.797Z,26.06
2016-08-04T13:03:13.835Z,26.06